Airport View

Enter AWOS ICAO identifier for current METAR.

ex. KFNL

KPGV 031710Z AUTO 00000KT 10SM CLR 32/18 A2996 RMK AO2

3 Jul 2020 17:55

Frequency: 128.425

Phone: 252-758-6485

Other Area AWOS: KOCW - KETC - KISO - KRWI

TAF KPGV 031120Z 0312/0412 33005KT P6SM SKC FM040900 26005KT P6SM FEW070 AMD LTD TO CLD VIS AND WIND